sensor_id;sensor_type;location;lat;lon;timestamp;temperature;humidity
21019;DHT22;10667;51.056;3.732;2023-05-07T00:02:06;18.60;99.90
21019;DHT22;10667;51.056;3.732;2023-05-07T00:04:32;18.50;99.90
21019;DHT22;10667;51.056;3.732;2023-05-07T00:07:02;18.50;99.90
21019;DHT22;10667;51.056;3.732;2023-05-07T00:09:28;18.50;99.90
21019;DHT22;10667;51.056;3.732;2023-05-07T00:11:53;18.50;99.90
21019;DHT22;10667;51.056;3.732;2023-05-07T00:14:19;18.60;99.90
21019;DHT22;10667;51.056;3.732;2023-05-07T00:16:45;18.50;99.90
21019;DHT22;10667;51.056;3.732;2023-05-07T00:19:11;18.50;99.90
21019;DHT22;10667;51.056;3.732;2023-05-07T00:21:36;18.50;99.90
21019;DHT22;10667;51.056;3.732;2023-05-07T00:24:02;18.50;99.90
21019;DHT22;10667;51.056;3.732;2023-05-07T00:26:28;18.50;99.90
21019;DHT22;10667;51.056;3.732;2023-05-07T00:28:54;18.50;99.90
21019;DHT22;10667;51.056;3.732;2023-05-07T00:31:19;18.50;99.90
21019;DHT22;10667;51.056;3.732;2023-05-07T00:33:45;18.50;99.90
21019;DHT22;10667;51.056;3.732;2023-05-07T00:36:11;18.40;99.90
21019;DHT22;10667;51.056;3.732;2023-05-07T00:38:36;18.40;99.90
21019;DHT22;10667;51.056;3.732;2023-05-07T00:41:02;18.50;99.90
21019;DHT22;10667;51.056;3.732;2023-05-07T00:43:28;18.50;99.90
21019;DHT22;10667;51.056;3.732;2023-05-07T00:45:54;18.40;99.90
21019;DHT22;10667;51.056;3.732;2023-05-07T00:48:20;18.50;99.90
21019;DHT22;10667;51.056;3.732;2023-05-07T00:50:46;18.40;99.90
21019;DHT22;10667;51.056;3.732;2023-05-07T00:53:12;18.40;99.90
21019;DHT22;10667;51.056;3.732;2023-05-07T00:55:38;18.40;99.90
21019;DHT22;10667;51.056;3.732;2023-05-07T00:58:04;18.40;99.90
21019;DHT22;10667;51.056;3.732;2023-05-07T01:00:31;18.30;99.90
21019;DHT22;10667;51.056;3.732;2023-05-07T01:02:57;18.40;99.90
21019;DHT22;10667;51.056;3.732;2023-05-07T01:05:24;18.30;99.90
21019;DHT22;10667;51.056;3.732;2023-05-07T01:07:52;18.30;99.90
21019;DHT22;10667;51.056;3.732;2023-05-07T01:10:19;18.30;99.90
21019;DHT22;10667;51.056;3.732;2023-05-07T01:12:45;18.30;99.90
21019;DHT22;10667;51.056;3.732;2023-05-07T01:15:13;18.30;99.90
21019;DHT22;10667;51.056;3.732;2023-05-07T01:17:40;18.30;99.90
21019;DHT22;10667;51.056;3.732;2023-05-07T01:20:07;18.30;99.90
21019;DHT22;10667;51.056;3.732;2023-05-07T01:22:39;18.20;99.90
21019;DHT22;10667;51.056;3.732;2023-05-07T01:25:06;18.20;99.90
21019;DHT22;10667;51.056;3.732;2023-05-07T01:27:33;18.20;99.90
21019;DHT22;10667;51.056;3.732;2023-05-07T01:30:00;18.20;99.90
21019;DHT22;10667;51.056;3.732;2023-05-07T01:32:48;18.20;99.90
21019;DHT22;10667;51.056;3.732;2023-05-07T01:35:22;18.10;99.90
21019;DHT22;10667;51.056;3.732;2023-05-07T01:37:50;18.10;99.90
21019;DHT22;10667;51.056;3.732;2023-05-07T01:40:16;18.10;99.90
21019;DHT22;10667;51.056;3.732;2023-05-07T01:42:43;18.10;99.90
21019;DHT22;10667;51.056;3.732;2023-05-07T01:45:09;18.10;99.90
21019;DHT22;10667;51.056;3.732;2023-05-07T01:47:36;18.10;99.90
21019;DHT22;10667;51.056;3.732;2023-05-07T01:50:04;18.10;99.90
21019;DHT22;10667;51.056;3.732;2023-05-07T01:52:31;18.10;99.90
21019;DHT22;10667;51.056;3.732;2023-05-07T01:54:57;18.10;99.90
21019;DHT22;10667;51.056;3.732;2023-05-07T01:57:22;18.10;99.90
21019;DHT22;10667;51.056;3.732;2023-05-07T01:59:48;18.10;99.90
21019;DHT22;10667;51.056;3.732;2023-05-07T02:02:13;18.10;99.90
21019;DHT22;10667;51.056;3.732;2023-05-07T02:04:39;18.10;99.90
21019;DHT22;10667;51.056;3.732;2023-05-07T02:07:05;18.10;99.90
21019;DHT22;10667;51.056;3.732;2023-05-07T02:09:30;18.00;99.90
21019;DHT22;10667;51.056;3.732;2023-05-07T02:11:56;18.00;99.90
21019;DHT22;10667;51.056;3.732;2023-05-07T02:14:22;17.90;99.90
21019;DHT22;10667;51.056;3.732;2023-05-07T02:16:47;17.90;99.90
21019;DHT22;10667;51.056;3.732;2023-05-07T02:19:13;17.90;99.90
21019;DHT22;10667;51.056;3.732;2023-05-07T02:21:39;17.90;99.90
21019;DHT22;10667;51.056;3.732;2023-05-07T02:24:05;17.80;99.90
21019;DHT22;10667;51.056;3.732;2023-05-07T02:26:30;17.80;99.90
21019;DHT22;10667;51.056;3.732;2023-05-07T02:28:56;17.80;99.90
21019;DHT22;10667;51.056;3.732;2023-05-07T02:31:21;17.90;99.90
21019;DHT22;10667;51.056;3.732;2023-05-07T02:33:47;17.80;99.90
21019;DHT22;10667;51.056;3.732;2023-05-07T02:36:13;17.80;99.90
21019;DHT22;10667;51.056;3.732;2023-05-07T02:38:38;17.80;99.90
21019;DHT22;10667;51.056;3.732;2023-05-07T02:41:04;17.80;99.90
21019;DHT22;10667;51.056;3.732;2023-05-07T02:43:30;17.80;99.90
21019;DHT22;10667;51.056;3.732;2023-05-07T02:46:06;17.70;99.90
21019;DHT22;10667;51.056;3.732;2023-05-07T02:48:33;17.80;99.90
21019;DHT22;10667;51.056;3.732;2023-05-07T02:50:59;17.70;99.90
21019;DHT22;10667;51.056;3.732;2023-05-07T02:53:26;17.70;99.90
21019;DHT22;10667;51.056;3.732;2023-05-07T02:55:56;17.70;99.90
21019;DHT22;10667;51.056;3.732;2023-05-07T02:58:21;17.80;99.90
21019;DHT22;10667;51.056;3.732;2023-05-07T03:00:47;17.70;99.90
21019;DHT22;10667;51.056;3.732;2023-05-07T03:03:13;17.70;99.90
21019;DHT22;10667;51.056;3.732;2023-05-07T03:05:39;17.70;99.90
21019;DHT22;10667;51.056;3.732;2023-05-07T03:08:05;17.80;99.90
21019;DHT22;10667;51.056;3.732;2023-05-07T03:10:30;17.70;99.90
21019;DHT22;10667;51.056;3.732;2023-05-07T03:12:56;17.70;99.90
21019;DHT22;10667;51.056;3.732;2023-05-07T03:15:22;17.70;99.90
21019;DHT22;10667;51.056;3.732;2023-05-07T03:17:50;17.70;99.90
21019;DHT22;10667;51.056;3.732;2023-05-07T03:20:16;17.70;99.90
21019;DHT22;10667;51.056;3.732;2023-05-07T03:22:42;17.80;99.90
21019;DHT22;10667;51.056;3.732;2023-05-07T03:25:08;17.80;99.90
21019;DHT22;10667;51.056;3.732;2023-05-07T03:27:34;17.80;99.90
21019;DHT22;10667;51.056;3.732;2023-05-07T03:30:00;17.80;99.90
21019;DHT22;10667;51.056;3.732;2023-05-07T03:32:26;17.80;99.90
21019;DHT22;10667;51.056;3.732;2023-05-07T03:34:52;17.80;99.90
21019;DHT22;10667;51.056;3.732;2023-05-07T03:37:18;17.80;99.90
21019;DHT22;10667;51.056;3.732;2023-05-07T03:39:43;17.80;99.90
21019;DHT22;10667;51.056;3.732;2023-05-07T03:42:09;17.80;99.90
21019;DHT22;10667;51.056;3.732;2023-05-07T03:44:35;17.80;99.90
21019;DHT22;10667;51.056;3.732;2023-05-07T03:47:04;17.80;99.90
21019;DHT22;10667;51.056;3.732;2023-05-07T03:49:30;17.80;99.90
21019;DHT22;10667;51.056;3.732;2023-05-07T03:51:55;17.80;99.90
21019;DHT22;10667;51.056;3.732;2023-05-07T03:54:21;17.90;99.90
21019;DHT22;10667;51.056;3.732;2023-05-07T03:56:47;17.90;99.90
21019;DHT22;10667;51.056;3.732;2023-05-07T03:59:13;17.80;99.90
21019;DHT22;10667;51.056;3.732;2023-05-07T04:01:39;17.80;99.90
21019;DHT22;10667;51.056;3.732;2023-05-07T04:04:05;17.80;99.90
21019;DHT22;10667;51.056;3.732;2023-05-07T04:06:31;17.80;99.90
21019;DHT22;10667;51.056;3.732;2023-05-07T04:08:57;17.80;99.90
21019;DHT22;10667;51.056;3.732;2023-05-07T04:11:23;17.80;99.90
21019;DHT22;10667;51.056;3.732;2023-05-07T04:13:48;17.80;99.90
21019;DHT22;10667;51.056;3.732;2023-05-07T04:16:14;17.80;99.90
21019;DHT22;10667;51.056;3.732;2023-05-07T04:18:40;17.80;99.90
21019;DHT22;10667;51.056;3.732;2023-05-07T04:21:05;17.80;99.90
21019;DHT22;10667;51.056;3.732;2023-05-07T04:23:31;17.80;99.90
21019;DHT22;10667;51.056;3.732;2023-05-07T04:25:57;17.80;99.90
21019;DHT22;10667;51.056;3.732;2023-05-07T04:28:23;17.80;99.90
21019;DHT22;10667;51.056;3.732;2023-05-07T04:30:49;17.70;99.90
21019;DHT22;10667;51.056;3.732;2023-05-07T04:33:15;17.70;99.90
21019;DHT22;10667;51.056;3.732;2023-05-07T04:35:43;17.80;99.90
21019;DHT22;10667;51.056;3.732;2023-05-07T04:38:09;17.80;99.90
21019;DHT22;10667;51.056;3.732;2023-05-07T04:40:36;17.70;99.90
21019;DHT22;10667;51.056;3.732;2023-05-07T04:43:02;17.80;99.90
21019;DHT22;10667;51.056;3.732;2023-05-07T04:45:27;17.80;99.90
21019;DHT22;10667;51.056;3.732;2023-05-07T04:47:53;17.80;99.90
21019;DHT22;10667;51.056;3.732;2023-05-07T04:50:18;17.80;99.90
21019;DHT22;10667;51.056;3.732;2023-05-07T04:52:45;17.80;99.90
21019;DHT22;10667;51.056;3.732;2023-05-07T04:55:10;17.80;99.90
21019;DHT22;10667;51.056;3.732;2023-05-07T04:57:36;17.80;99.90
21019;DHT22;10667;51.056;3.732;2023-05-07T05:00:04;17.80;99.90
21019;DHT22;10667;51.056;3.732;2023-05-07T05:02:30;17.80;99.90
21019;DHT22;10667;51.056;3.732;2023-05-07T05:04:55;17.80;99.90
21019;DHT22;10667;51.056;3.732;2023-05-07T05:07:21;17.80;99.90
21019;DHT22;10667;51.056;3.732;2023-05-07T05:09:46;17.70;99.90
21019;DHT22;10667;51.056;3.732;2023-05-07T05:12:12;17.70;99.90
21019;DHT22;10667;51.056;3.732;2023-05-07T05:14:38;17.60;99.90
21019;DHT22;10667;51.056;3.732;2023-05-07T05:17:03;17.60;99.90
21019;DHT22;10667;51.056;3.732;2023-05-07T05:19:29;17.60;99.90
21019;DHT22;10667;51.056;3.732;2023-05-07T05:21:55;17.60;99.90
21019;DHT22;10667;51.056;3.732;2023-05-07T05:24:20;17.50;99.90
21019;DHT22;10667;51.056;3.732;2023-05-07T05:26:46;17.50;99.90
21019;DHT22;10667;51.056;3.732;2023-05-07T05:29:11;17.40;99.90
21019;DHT22;10667;51.056;3.732;2023-05-07T05:31:37;17.40;99.90
21019;DHT22;10667;51.056;3.732;2023-05-07T05:34:03;17.30;99.90
21019;DHT22;10667;51.056;3.732;2023-05-07T05:36:29;17.30;99.90
21019;DHT22;10667;51.056;3.732;2023-05-07T05:38:55;17.10;99.90
21019;DHT22;10667;51.056;3.732;2023-05-07T05:41:21;17.10;99.90
21019;DHT22;10667;51.056;3.732;2023-05-07T05:43:47;17.10;99.90
21019;DHT22;10667;51.056;3.732;2023-05-07T05:46:12;16.90;99.90
21019;DHT22;10667;51.056;3.732;2023-05-07T05:48:38;16.90;99.90
21019;DHT22;10667;51.056;3.732;2023-05-07T05:51:03;16.80;99.90
21019;DHT22;10667;51.056;3.732;2023-05-07T05:53:29;16.80;99.90
21019;DHT22;10667;51.056;3.732;2023-05-07T05:55:55;16.60;99.90
21019;DHT22;10667;51.056;3.732;2023-05-07T05:58:20;16.60;99.90
21019;DHT22;10667;51.056;3.732;2023-05-07T06:00:46;16.60;99.90
21019;DHT22;10667;51.056;3.732;2023-05-07T06:03:13;16.60;99.90
21019;DHT22;10667;51.056;3.732;2023-05-07T06:05:39;16.50;99.90
21019;DHT22;10667;51.056;3.732;2023-05-07T06:08:05;16.40;99.90
21019;DHT22;10667;51.056;3.732;2023-05-07T06:10:30;16.40;99.90
21019;DHT22;10667;51.056;3.732;2023-05-07T06:12:56;16.40;99.90
21019;DHT22;10667;51.056;3.732;2023-05-07T06:15:22;16.30;99.90
21019;DHT22;10667;51.056;3.732;2023-05-07T06:17:47;16.30;99.90
21019;DHT22;10667;51.056;3.732;2023-05-07T06:20:14;16.30;99.90
21019;DHT22;10667;51.056;3.732;2023-05-07T06:22:40;16.30;99.90
21019;DHT22;10667;51.056;3.732;2023-05-07T06:25:06;16.30;99.90
21019;DHT22;10667;51.056;3.732;2023-05-07T06:27:31;16.30;99.90
21019;DHT22;10667;51.056;3.732;2023-05-07T06:29:57;16.30;99.90
21019;DHT22;10667;51.056;3.732;2023-05-07T06:32:23;16.30;99.90
21019;DHT22;10667;51.056;3.732;2023-05-07T06:34:48;16.30;99.90
21019;DHT22;10667;51.056;3.732;2023-05-07T06:37:14;16.30;99.90
21019;DHT22;10667;51.056;3.732;2023-05-07T06:39:39;16.20;99.90
21019;DHT22;10667;51.056;3.732;2023-05-07T06:42:05;16.30;99.90
21019;DHT22;10667;51.056;3.732;2023-05-07T06:44:31;16.30;99.90
21019;DHT22;10667;51.056;3.732;2023-05-07T06:46:57;16.30;99.90
21019;DHT22;10667;51.056;3.732;2023-05-07T06:49:23;16.30;99.90
21019;DHT22;10667;51.056;3.732;2023-05-07T06:51:48;16.40;99.90
21019;DHT22;10667;51.056;3.732;2023-05-07T06:54:14;16.40;99.90
21019;DHT22;10667;51.056;3.732;2023-05-07T06:56:39;16.40;99.90
21019;DHT22;10667;51.056;3.732;2023-05-07T06:59:06;16.40;99.90
21019;DHT22;10667;51.056;3.732;2023-05-07T07:01:31;16.50;99.90
21019;DHT22;10667;51.056;3.732;2023-05-07T07:03:57;16.40;99.90
21019;DHT22;10667;51.056;3.732;2023-05-07T07:06:23;16.50;99.90
21019;DHT22;10667;51.056;3.732;2023-05-07T07:08:49;16.50;99.90
21019;DHT22;10667;51.056;3.732;2023-05-07T07:11:15;16.50;99.90
21019;DHT22;10667;51.056;3.732;2023-05-07T07:13:41;16.60;99.90
21019;DHT22;10667;51.056;3.732;2023-05-07T07:16:06;16.60;99.90
21019;DHT22;10667;51.056;3.732;2023-05-07T07:18:32;16.60;99.90
21019;DHT22;10667;51.056;3.732;2023-05-07T07:20:58;16.60;99.90
21019;DHT22;10667;51.056;3.732;2023-05-07T07:23:24;16.60;99.90
21019;DHT22;10667;51.056;3.732;2023-05-07T07:25:50;16.60;99.90
21019;DHT22;10667;51.056;3.732;2023-05-07T07:28:20;16.60;99.90
21019;DHT22;10667;51.056;3.732;2023-05-07T07:30:46;16.60;99.90
21019;DHT22;10667;51.056;3.732;2023-05-07T07:33:12;16.60;99.90
21019;DHT22;10667;51.056;3.732;2023-05-07T07:35:37;16.60;99.90
21019;DHT22;10667;51.056;3.732;2023-05-07T07:38:03;16.60;99.90
21019;DHT22;10667;51.056;3.732;2023-05-07T07:40:29;16.60;99.90
21019;DHT22;10667;51.056;3.732;2023-05-07T07:42:54;16.60;99.90
21019;DHT22;10667;51.056;3.732;2023-05-07T07:45:20;16.60;99.90
21019;DHT22;10667;51.056;3.732;2023-05-07T07:47:46;16.60;99.90
21019;DHT22;10667;51.056;3.732;2023-05-07T07:50:12;16.60;99.90
21019;DHT22;10667;51.056;3.732;2023-05-07T07:52:38;16.60;99.90
21019;DHT22;10667;51.056;3.732;2023-05-07T07:55:04;16.50;99.90
21019;DHT22;10667;51.056;3.732;2023-05-07T07:57:30;16.60;99.90
21019;DHT22;10667;51.056;3.732;2023-05-07T07:59:55;16.70;99.90
21019;DHT22;10667;51.056;3.732;2023-05-07T08:02:21;16.70;99.90
21019;DHT22;10667;51.056;3.732;2023-05-07T08:04:47;16.70;99.90
21019;DHT22;10667;51.056;3.732;2023-05-07T08:07:13;16.70;99.90
21019;DHT22;10667;51.056;3.732;2023-05-07T08:09:39;16.60;99.90
21019;DHT22;10667;51.056;3.732;2023-05-07T08:12:06;16.60;99.90
21019;DHT22;10667;51.056;3.732;2023-05-07T08:14:32;16.70;99.90
21019;DHT22;10667;51.056;3.732;2023-05-07T08:16:58;16.70;99.90
21019;DHT22;10667;51.056;3.732;2023-05-07T08:19:24;16.80;99.90
21019;DHT22;10667;51.056;3.732;2023-05-07T08:21:50;16.80;99.90
21019;DHT22;10667;51.056;3.732;2023-05-07T08:24:16;16.80;99.90
21019;DHT22;10667;51.056;3.732;2023-05-07T08:26:43;16.90;99.90
21019;DHT22;10667;51.056;3.732;2023-05-07T08:29:09;17.00;99.90
21019;DHT22;10667;51.056;3.732;2023-05-07T08:31:35;16.90;99.90
21019;DHT22;10667;51.056;3.732;2023-05-07T08:34:03;16.90;99.90
21019;DHT22;10667;51.056;3.732;2023-05-07T08:36:29;16.90;99.90
21019;DHT22;10667;51.056;3.732;2023-05-07T08:38:54;16.90;99.90
21019;DHT22;10667;51.056;3.732;2023-05-07T08:41:20;17.00;99.90
21019;DHT22;10667;51.056;3.732;2023-05-07T08:43:50;17.00;99.90
21019;DHT22;10667;51.056;3.732;2023-05-07T08:46:22;17.00;99.90
21019;DHT22;10667;51.056;3.732;2023-05-07T08:48:48;17.10;99.90
21019;DHT22;10667;51.056;3.732;2023-05-07T08:51:17;17.20;99.90
21019;DHT22;10667;51.056;3.732;2023-05-07T08:53:43;17.20;99.90
21019;DHT22;10667;51.056;3.732;2023-05-07T08:56:10;17.20;99.90
21019;DHT22;10667;51.056;3.732;2023-05-07T08:58:35;17.30;99.90
21019;DHT22;10667;51.056;3.732;2023-05-07T09:01:06;17.30;99.90
21019;DHT22;10667;51.056;3.732;2023-05-07T09:03:32;17.30;99.90
21019;DHT22;10667;51.056;3.732;2023-05-07T09:05:58;17.20;99.90
21019;DHT22;10667;51.056;3.732;2023-05-07T09:08:27;17.30;99.90
21019;DHT22;10667;51.056;3.732;2023-05-07T09:10:53;17.30;99.90
21019;DHT22;10667;51.056;3.732;2023-05-07T09:13:19;17.30;99.90
21019;DHT22;10667;51.056;3.732;2023-05-07T09:15:45;17.40;99.90
21019;DHT22;10667;51.056;3.732;2023-05-07T09:18:10;17.40;99.90
21019;DHT22;10667;51.056;3.732;2023-05-07T09:20:38;17.30;99.90
21019;DHT22;10667;51.056;3.732;2023-05-07T09:23:03;17.30;99.90
21019;DHT22;10667;51.056;3.732;2023-05-07T09:25:31;17.30;99.90
21019;DHT22;10667;51.056;3.732;2023-05-07T09:27:57;17.40;99.90
21019;DHT22;10667;51.056;3.732;2023-05-07T09:30:27;17.40;99.90
21019;DHT22;10667;51.056;3.732;2023-05-07T09:32:53;17.50;99.90
21019;DHT22;10667;51.056;3.732;2023-05-07T09:35:19;17.60;99.90
21019;DHT22;10667;51.056;3.732;2023-05-07T09:37:47;17.70;99.90
21019;DHT22;10667;51.056;3.732;2023-05-07T09:40:23;17.80;99.90
21019;DHT22;10667;51.056;3.732;2023-05-07T09:42:49;17.80;99.90
21019;DHT22;10667;51.056;3.732;2023-05-07T09:45:21;17.80;99.90
21019;DHT22;10667;51.056;3.732;2023-05-07T09:47:48;17.90;99.90
21019;DHT22;10667;51.056;3.732;2023-05-07T09:50:15;17.90;99.90
21019;DHT22;10667;51.056;3.732;2023-05-07T09:52:42;18.00;99.90
21019;DHT22;10667;51.056;3.732;2023-05-07T09:55:09;18.00;99.90
21019;DHT22;10667;51.056;3.732;2023-05-07T09:57:36;18.00;99.90
21019;DHT22;10667;51.056;3.732;2023-05-07T10:00:03;18.10;99.90
21019;DHT22;10667;51.056;3.732;2023-05-07T10:02:35;18.00;99.90
21019;DHT22;10667;51.056;3.732;2023-05-07T10:05:02;18.00;99.90
21019;DHT22;10667;51.056;3.732;2023-05-07T10:07:29;18.00;99.90
21019;DHT22;10667;51.056;3.732;2023-05-07T10:09:55;18.20;99.90
21019;DHT22;10667;51.056;3.732;2023-05-07T10:12:21;18.30;99.90
21019;DHT22;10667;51.056;3.732;2023-05-07T10:14:48;18.40;99.90
21019;DHT22;10667;51.056;3.732;2023-05-07T10:17:17;18.50;99.90
21019;DHT22;10667;51.056;3.732;2023-05-07T10:19:44;18.50;99.90
21019;DHT22;10667;51.056;3.732;2023-05-07T10:22:11;18.60;99.90
21019;DHT22;10667;51.056;3.732;2023-05-07T10:24:39;18.70;99.90
21019;DHT22;10667;51.056;3.732;2023-05-07T10:27:11;18.80;99.90
21019;DHT22;10667;51.056;3.732;2023-05-07T10:34:55;19.00;99.90
21019;DHT22;10667;51.056;3.732;2023-05-07T10:37:22;18.90;99.90
21019;DHT22;10667;51.056;3.732;2023-05-07T10:39:48;19.00;99.90
21019;DHT22;10667;51.056;3.732;2023-05-07T10:42:14;19.20;99.90
21019;DHT22;10667;51.056;3.732;2023-05-07T10:44:40;19.30;99.90
21019;DHT22;10667;51.056;3.732;2023-05-07T10:47:14;19.40;99.90
21019;DHT22;10667;51.056;3.732;2023-05-07T10:52:23;19.40;99.90
21019;DHT22;10667;51.056;3.732;2023-05-07T10:57:45;19.50;99.90
21019;DHT22;10667;51.056;3.732;2023-05-07T11:05:29;19.30;99.90
21019;DHT22;10667;51.056;3.732;2023-05-07T11:07:56;19.30;99.90
21019;DHT22;10667;51.056;3.732;2023-05-07T11:10:22;19.20;99.90
21019;DHT22;10667;51.056;3.732;2023-05-07T11:12:48;19.40;99.90
21019;DHT22;10667;51.056;3.732;2023-05-07T11:15:14;19.30;99.90
21019;DHT22;10667;51.056;3.732;2023-05-07T11:17:56;19.40;99.90
21019;DHT22;10667;51.056;3.732;2023-05-07T11:20:49;19.30;99.90
21019;DHT22;10667;51.056;3.732;2023-05-07T11:28:30;19.40;99.90
21019;DHT22;10667;51.056;3.732;2023-05-07T11:30:57;19.40;99.90
21019;DHT22;10667;51.056;3.732;2023-05-07T11:33:23;19.40;99.90
21019;DHT22;10667;51.056;3.732;2023-05-07T11:35:52;19.40;99.90
21019;DHT22;10667;51.056;3.732;2023-05-07T11:38:19;19.50;99.90
21019;DHT22;10667;51.056;3.732;2023-05-07T11:40:56;19.40;99.90
21019;DHT22;10667;51.056;3.732;2023-05-07T11:43:22;19.60;99.90
21019;DHT22;10667;51.056;3.732;2023-05-07T11:45:48;19.60;99.90
21019;DHT22;10667;51.056;3.732;2023-05-07T11:48:15;19.70;99.90
21019;DHT22;10667;51.056;3.732;2023-05-07T11:50:51;19.80;99.90
21019;DHT22;10667;51.056;3.732;2023-05-07T11:53:18;19.90;99.90
21019;DHT22;10667;51.056;3.732;2023-05-07T11:55:44;20.00;99.90
21019;DHT22;10667;51.056;3.732;2023-05-07T11:58:12;20.00;99.90
21019;DHT22;10667;51.056;3.732;2023-05-07T12:00:38;20.00;99.90
21019;DHT22;10667;51.056;3.732;2023-05-07T12:03:06;20.00;99.90
21019;DHT22;10667;51.056;3.732;2023-05-07T12:05:32;20.10;99.90
21019;DHT22;10667;51.056;3.732;2023-05-07T12:07:58;19.90;99.90
21019;DHT22;10667;51.056;3.732;2023-05-07T12:10:23;20.10;99.90
21019;DHT22;10667;51.056;3.732;2023-05-07T12:12:50;20.30;99.90
21019;DHT22;10667;51.056;3.732;2023-05-07T12:15:17;20.70;99.90
21019;DHT22;10667;51.056;3.732;2023-05-07T12:17:43;21.00;99.90
21019;DHT22;10667;51.056;3.732;2023-05-07T12:20:09;21.00;99.90
21019;DHT22;10667;51.056;3.732;2023-05-07T12:22:36;21.20;99.90
21019;DHT22;10667;51.056;3.732;2023-05-07T12:25:02;21.30;99.90
21019;DHT22;10667;51.056;3.732;2023-05-07T12:27:28;21.40;99.90
21019;DHT22;10667;51.056;3.732;2023-05-07T12:29:54;21.50;99.90
21019;DHT22;10667;51.056;3.732;2023-05-07T12:32:21;21.50;99.90
21019;DHT22;10667;51.056;3.732;2023-05-07T12:34:49;21.50;99.90
21019;DHT22;10667;51.056;3.732;2023-05-07T12:37:15;21.70;99.90
21019;DHT22;10667;51.056;3.732;2023-05-07T12:39:47;22.00;99.90
21019;DHT22;10667;51.056;3.732;2023-05-07T12:42:18;22.20;99.90
21019;DHT22;10667;51.056;3.732;2023-05-07T12:44:46;22.50;99.90
21019;DHT22;10667;51.056;3.732;2023-05-07T12:47:11;22.80;99.90
21019;DHT22;10667;51.056;3.732;2023-05-07T12:49:38;23.10;99.90
21019;DHT22;10667;51.056;3.732;2023-05-07T12:52:05;23.10;99.90
21019;DHT22;10667;51.056;3.732;2023-05-07T12:54:32;23.20;99.90
21019;DHT22;10667;51.056;3.732;2023-05-07T12:57:08;23.30;99.90
21019;DHT22;10667;51.056;3.732;2023-05-07T12:59:39;23.30;99.90
21019;DHT22;10667;51.056;3.732;2023-05-07T13:02:06;23.30;99.90
21019;DHT22;10667;51.056;3.732;2023-05-07T13:04:32;23.50;99.90
21019;DHT22;10667;51.056;3.732;2023-05-07T13:06:58;23.80;99.90
21019;DHT22;10667;51.056;3.732;2023-05-07T13:09:24;24.20;99.90
21019;DHT22;10667;51.056;3.732;2023-05-07T13:11:50;24.50;99.90
21019;DHT22;10667;51.056;3.732;2023-05-07T13:14:16;24.40;99.90
21019;DHT22;10667;51.056;3.732;2023-05-07T13:16:42;24.50;99.90
21019;DHT22;10667;51.056;3.732;2023-05-07T13:19:07;24.60;99.90
21019;DHT22;10667;51.056;3.732;2023-05-07T13:21:33;24.80;99.90
21019;DHT22;10667;51.056;3.732;2023-05-07T13:23:59;24.90;99.90
21019;DHT22;10667;51.056;3.732;2023-05-07T13:26:25;24.70;99.90
21019;DHT22;10667;51.056;3.732;2023-05-07T13:28:54;24.50;99.90
21019;DHT22;10667;51.056;3.732;2023-05-07T13:31:20;24.30;99.90
21019;DHT22;10667;51.056;3.732;2023-05-07T13:33:46;24.10;99.90
21019;DHT22;10667;51.056;3.732;2023-05-07T13:36:12;24.00;99.90
21019;DHT22;10667;51.056;3.732;2023-05-07T13:38:38;24.10;99.90
21019;DHT22;10667;51.056;3.732;2023-05-07T13:41:04;24.40;99.90
21019;DHT22;10667;51.056;3.732;2023-05-07T13:43:29;24.70;99.90
21019;DHT22;10667;51.056;3.732;2023-05-07T13:45:55;24.60;99.90
21019;DHT22;10667;51.056;3.732;2023-05-07T13:48:21;24.40;99.90
21019;DHT22;10667;51.056;3.732;2023-05-07T13:50:46;24.10;99.90
21019;DHT22;10667;51.056;3.732;2023-05-07T13:53:12;23.80;99.90
21019;DHT22;10667;51.056;3.732;2023-05-07T13:55:37;23.50;99.90
21019;DHT22;10667;51.056;3.732;2023-05-07T13:58:03;23.20;99.90
21019;DHT22;10667;51.056;3.732;2023-05-07T14:00:29;22.90;99.90
21019;DHT22;10667;51.056;3.732;2023-05-07T14:02:56;22.60;99.90
21019;DHT22;10667;51.056;3.732;2023-05-07T14:05:22;22.40;99.90
21019;DHT22;10667;51.056;3.732;2023-05-07T14:07:52;22.10;99.90
21019;DHT22;10667;51.056;3.732;2023-05-07T14:10:18;21.90;99.90
21019;DHT22;10667;51.056;3.732;2023-05-07T14:12:46;21.70;99.90
21019;DHT22;10667;51.056;3.732;2023-05-07T14:15:12;21.50;99.90
21019;DHT22;10667;51.056;3.732;2023-05-07T14:17:37;21.40;99.90
21019;DHT22;10667;51.056;3.732;2023-05-07T14:20:04;21.30;99.90
21019;DHT22;10667;51.056;3.732;2023-05-07T14:22:31;21.10;99.90
21019;DHT22;10667;51.056;3.732;2023-05-07T14:24:57;20.70;99.90
21019;DHT22;10667;51.056;3.732;2023-05-07T14:27:22;20.50;99.90
21019;DHT22;10667;51.056;3.732;2023-05-07T14:29:48;20.10;99.90
21019;DHT22;10667;51.056;3.732;2023-05-07T14:32:17;19.80;99.90
21019;DHT22;10667;51.056;3.732;2023-05-07T14:34:43;19.70;99.90
21019;DHT22;10667;51.056;3.732;2023-05-07T14:37:09;19.50;99.90
21019;DHT22;10667;51.056;3.732;2023-05-07T14:39:35;19.40;99.90
21019;DHT22;10667;51.056;3.732;2023-05-07T14:42:01;19.20;99.90
21019;DHT22;10667;51.056;3.732;2023-05-07T14:44:27;18.90;99.90
21019;DHT22;10667;51.056;3.732;2023-05-07T14:46:53;18.80;99.90
21019;DHT22;10667;51.056;3.732;2023-05-07T14:49:19;18.70;99.90
21019;DHT22;10667;51.056;3.732;2023-05-07T14:51:45;18.70;99.90
21019;DHT22;10667;51.056;3.732;2023-05-07T14:54:12;18.70;99.90
21019;DHT22;10667;51.056;3.732;2023-05-07T14:56:39;18.60;99.90
21019;DHT22;10667;51.056;3.732;2023-05-07T14:59:05;18.60;99.90
21019;DHT22;10667;51.056;3.732;2023-05-07T15:01:31;18.60;99.90
21019;DHT22;10667;51.056;3.732;2023-05-07T15:03:56;18.60;99.90
21019;DHT22;10667;51.056;3.732;2023-05-07T15:06:22;18.60;99.90
21019;DHT22;10667;51.056;3.732;2023-05-07T15:08:48;18.60;99.90
21019;DHT22;10667;51.056;3.732;2023-05-07T15:11:14;18.60;99.90
21019;DHT22;10667;51.056;3.732;2023-05-07T15:13:42;18.70;99.90
21019;DHT22;10667;51.056;3.732;2023-05-07T15:16:08;18.90;99.90
21019;DHT22;10667;51.056;3.732;2023-05-07T15:18:34;19.00;99.90
21019;DHT22;10667;51.056;3.732;2023-05-07T15:20:59;19.30;99.90
21019;DHT22;10667;51.056;3.732;2023-05-07T15:23:25;19.60;99.90
21019;DHT22;10667;51.056;3.732;2023-05-07T15:25:52;19.90;99.90
21019;DHT22;10667;51.056;3.732;2023-05-07T15:28:17;20.00;99.90
21019;DHT22;10667;51.056;3.732;2023-05-07T15:30:43;20.10;99.90
21019;DHT22;10667;51.056;3.732;2023-05-07T15:33:09;20.10;99.90
21019;DHT22;10667;51.056;3.732;2023-05-07T15:35:35;20.10;99.90
21019;DHT22;10667;51.056;3.732;2023-05-07T15:38:00;20.00;99.90
21019;DHT22;10667;51.056;3.732;2023-05-07T15:40:29;20.00;99.90
21019;DHT22;10667;51.056;3.732;2023-05-07T15:42:55;20.10;99.90
21019;DHT22;10667;51.056;3.732;2023-05-07T15:45:22;20.10;99.90
21019;DHT22;10667;51.056;3.732;2023-05-07T15:47:48;20.20;99.90